sensor_id;sensor_type;location;lat;lon;timestamp;temperature;humidity
10175;DHT22;18221;38.704;0.152;2023-08-30T00:00:02;24.30;99.90
10175;DHT22;18221;38.704;0.152;2023-08-30T00:13:11;24.30;99.90
10175;DHT22;18221;38.704;0.152;2023-08-30T00:15:39;24.30;99.90
10175;DHT22;18221;38.704;0.152;2023-08-30T00:18:07;24.30;99.90
10175;DHT22;18221;38.704;0.152;2023-08-30T00:20:35;24.30;99.90
10175;DHT22;18221;38.704;0.152;2023-08-30T00:23:03;24.30;99.90
10175;DHT22;18221;38.704;0.152;2023-08-30T00:25:32;24.30;99.90
10175;DHT22;18221;38.704;0.152;2023-08-30T00:27:59;24.30;99.90
10175;DHT22;18221;38.704;0.152;2023-08-30T00:30:29;24.30;99.90
10175;DHT22;18221;38.704;0.152;2023-08-30T00:32:57;24.30;99.90
10175;DHT22;18221;38.704;0.152;2023-08-30T00:35:25;24.30;99.90
10175;DHT22;18221;38.704;0.152;2023-08-30T00:37:53;24.30;99.90
10175;DHT22;18221;38.704;0.152;2023-08-30T00:40:23;24.30;99.90
10175;DHT22;18221;38.704;0.152;2023-08-30T00:42:52;24.20;99.90
10175;DHT22;18221;38.704;0.152;2023-08-30T00:45:20;24.20;99.90
10175;DHT22;18221;38.704;0.152;2023-08-30T00:47:49;24.20;99.90
10175;DHT22;18221;38.704;0.152;2023-08-30T00:50:18;24.20;99.90
10175;DHT22;18221;38.704;0.152;2023-08-30T00:52:47;24.20;99.90
10175;DHT22;18221;38.704;0.152;2023-08-30T00:55:16;24.10;99.90
10175;DHT22;18221;38.704;0.152;2023-08-30T00:57:44;24.10;99.90
10175;DHT22;18221;38.704;0.152;2023-08-30T01:00:12;24.10;99.90
10175;DHT22;18221;38.704;0.152;2023-08-30T01:02:40;24.10;99.90
10175;DHT22;18221;38.704;0.152;2023-08-30T01:05:10;24.10;99.90
10175;DHT22;18221;38.704;0.152;2023-08-30T01:07:37;24.00;99.90
10175;DHT22;18221;38.704;0.152;2023-08-30T01:10:06;24.00;99.90
10175;DHT22;18221;38.704;0.152;2023-08-30T01:12:41;24.00;99.90
10175;DHT22;18221;38.704;0.152;2023-08-30T01:15:17;24.00;99.90
10175;DHT22;18221;38.704;0.152;2023-08-30T01:17:48;23.90;99.90
10175;DHT22;18221;38.704;0.152;2023-08-30T01:20:21;23.90;99.90
10175;DHT22;18221;38.704;0.152;2023-08-30T01:22:59;23.90;99.90
10175;DHT22;18221;38.704;0.152;2023-08-30T01:25:45;23.80;99.90
10175;DHT22;18221;38.704;0.152;2023-08-30T01:28:22;23.90;99.90
10175;DHT22;18221;38.704;0.152;2023-08-30T01:30:53;23.90;99.90
10175;DHT22;18221;38.704;0.152;2023-08-30T01:33:23;23.80;99.90
10175;DHT22;18221;38.704;0.152;2023-08-30T01:35:54;23.80;99.90
10175;DHT22;18221;38.704;0.152;2023-08-30T01:38:25;23.80;99.90
10175;DHT22;18221;38.704;0.152;2023-08-30T01:40:55;23.70;99.90
10175;DHT22;18221;38.704;0.152;2023-08-30T01:43:27;23.70;99.90
10175;DHT22;18221;38.704;0.152;2023-08-30T01:45:57;23.70;99.90
10175;DHT22;18221;38.704;0.152;2023-08-30T01:48:27;23.70;99.90
10175;DHT22;18221;38.704;0.152;2023-08-30T01:50:56;23.70;99.90
10175;DHT22;18221;38.704;0.152;2023-08-30T01:53:26;23.60;99.90
10175;DHT22;18221;38.704;0.152;2023-08-30T01:55:56;23.70;99.90
10175;DHT22;18221;38.704;0.152;2023-08-30T01:58:25;23.70;99.90
10175;DHT22;18221;38.704;0.152;2023-08-30T02:00:53;23.60;99.90
10175;DHT22;18221;38.704;0.152;2023-08-30T02:03:22;23.60;99.90
10175;DHT22;18221;38.704;0.152;2023-08-30T02:06:00;23.60;99.90
10175;DHT22;18221;38.704;0.152;2023-08-30T02:08:37;23.50;99.90
10175;DHT22;18221;38.704;0.152;2023-08-30T02:11:13;23.50;99.90
10175;DHT22;18221;38.704;0.152;2023-08-30T02:13:46;23.50;99.90
10175;DHT22;18221;38.704;0.152;2023-08-30T02:16:17;23.50;99.90
10175;DHT22;18221;38.704;0.152;2023-08-30T02:18:46;23.40;99.90
10175;DHT22;18221;38.704;0.152;2023-08-30T02:21:16;23.40;99.90
10175;DHT22;18221;38.704;0.152;2023-08-30T02:23:48;23.40;99.90
10175;DHT22;18221;38.704;0.152;2023-08-30T02:26:19;23.30;99.90
10175;DHT22;18221;38.704;0.152;2023-08-30T02:28:48;23.40;99.90
10175;DHT22;18221;38.704;0.152;2023-08-30T02:31:17;23.30;99.90
10175;DHT22;18221;38.704;0.152;2023-08-30T02:33:45;23.30;99.90
10175;DHT22;18221;38.704;0.152;2023-08-30T02:36:13;23.30;99.90
10175;DHT22;18221;38.704;0.152;2023-08-30T02:38:41;23.30;99.90
10175;DHT22;18221;38.704;0.152;2023-08-30T02:41:09;23.30;99.90
10175;DHT22;18221;38.704;0.152;2023-08-30T02:43:38;23.30;99.90
10175;DHT22;18221;38.704;0.152;2023-08-30T02:46:07;23.30;99.90
10175;DHT22;18221;38.704;0.152;2023-08-30T02:48:35;23.20;99.90
10175;DHT22;18221;38.704;0.152;2023-08-30T02:51:03;23.20;99.90
10175;DHT22;18221;38.704;0.152;2023-08-30T02:53:31;23.20;99.90
10175;DHT22;18221;38.704;0.152;2023-08-30T02:55:59;23.20;99.90
10175;DHT22;18221;38.704;0.152;2023-08-30T02:58:27;23.50;99.90
10175;DHT22;18221;38.704;0.152;2023-08-30T03:00:56;23.20;99.90
10175;DHT22;18221;38.704;0.152;2023-08-30T03:03:25;23.20;99.90
10175;DHT22;18221;38.704;0.152;2023-08-30T03:05:53;23.20;99.90
10175;DHT22;18221;38.704;0.152;2023-08-30T03:08:21;23.20;99.90
10175;DHT22;18221;38.704;0.152;2023-08-30T03:10:49;23.10;99.90
10175;DHT22;18221;38.704;0.152;2023-08-30T03:13:17;23.10;99.90
10175;DHT22;18221;38.704;0.152;2023-08-30T03:15:45;23.10;99.90
10175;DHT22;18221;38.704;0.152;2023-08-30T03:18:13;23.10;99.90
10175;DHT22;18221;38.704;0.152;2023-08-30T03:20:43;23.10;99.90
10175;DHT22;18221;38.704;0.152;2023-08-30T03:23:10;23.10;99.90
10175;DHT22;18221;38.704;0.152;2023-08-30T03:25:38;23.10;99.90
10175;DHT22;18221;38.704;0.152;2023-08-30T03:28:06;23.10;99.90
10175;DHT22;18221;38.704;0.152;2023-08-30T03:30:34;23.00;99.90
10175;DHT22;18221;38.704;0.152;2023-08-30T03:33:02;23.10;99.90
10175;DHT22;18221;38.704;0.152;2023-08-30T03:35:34;23.00;99.90
10175;DHT22;18221;38.704;0.152;2023-08-30T03:38:04;23.00;99.90
10175;DHT22;18221;38.704;0.152;2023-08-30T03:40:32;23.00;99.90
10175;DHT22;18221;38.704;0.152;2023-08-30T03:43:01;23.00;99.90
10175;DHT22;18221;38.704;0.152;2023-08-30T03:45:29;22.90;99.90
10175;DHT22;18221;38.704;0.152;2023-08-30T03:48:01;22.90;99.90
10175;DHT22;18221;38.704;0.152;2023-08-30T03:50:29;22.90;99.90
10175;DHT22;18221;38.704;0.152;2023-08-30T03:52:57;22.80;99.90
10175;DHT22;18221;38.704;0.152;2023-08-30T03:55:27;22.80;99.90
10175;DHT22;18221;38.704;0.152;2023-08-30T03:57:55;22.80;99.90
10175;DHT22;18221;38.704;0.152;2023-08-30T04:00:23;22.80;99.90
10175;DHT22;18221;38.704;0.152;2023-08-30T04:02:50;22.80;99.90
10175;DHT22;18221;38.704;0.152;2023-08-30T04:05:21;22.80;99.90
10175;DHT22;18221;38.704;0.152;2023-08-30T04:07:49;22.70;99.90
10175;DHT22;18221;38.704;0.152;2023-08-30T04:10:17;22.70;99.90
10175;DHT22;18221;38.704;0.152;2023-08-30T04:12:48;22.70;99.90
10175;DHT22;18221;38.704;0.152;2023-08-30T04:15:16;22.70;99.90
10175;DHT22;18221;38.704;0.152;2023-08-30T04:17:44;22.70;99.90
10175;DHT22;18221;38.704;0.152;2023-08-30T04:20:12;22.70;99.90
10175;DHT22;18221;38.704;0.152;2023-08-30T04:22:40;22.70;99.90
10175;DHT22;18221;38.704;0.152;2023-08-30T04:25:08;22.70;99.90
10175;DHT22;18221;38.704;0.152;2023-08-30T04:27:36;22.60;99.90
10175;DHT22;18221;38.704;0.152;2023-08-30T04:30:07;22.70;99.90
10175;DHT22;18221;38.704;0.152;2023-08-30T04:32:37;22.70;99.90
10175;DHT22;18221;38.704;0.152;2023-08-30T04:35:06;22.60;99.90
10175;DHT22;18221;38.704;0.152;2023-08-30T04:37:35;22.60;99.90
10175;DHT22;18221;38.704;0.152;2023-08-30T04:40:05;22.60;99.90
10175;DHT22;18221;38.704;0.152;2023-08-30T04:42:34;22.60;99.90
10175;DHT22;18221;38.704;0.152;2023-08-30T04:45:07;22.50;99.90
10175;DHT22;18221;38.704;0.152;2023-08-30T04:47:36;22.50;99.90
10175;DHT22;18221;38.704;0.152;2023-08-30T04:50:05;22.50;99.90
10175;DHT22;18221;38.704;0.152;2023-08-30T04:52:34;22.50;99.90
10175;DHT22;18221;38.704;0.152;2023-08-30T04:55:02;22.50;99.90
10175;DHT22;18221;38.704;0.152;2023-08-30T04:57:30;22.50;99.90
10175;DHT22;18221;38.704;0.152;2023-08-30T05:00:01;22.40;99.90
10175;DHT22;18221;38.704;0.152;2023-08-30T05:02:32;22.40;99.90
10175;DHT22;18221;38.704;0.152;2023-08-30T05:05:00;22.40;99.90
10175;DHT22;18221;38.704;0.152;2023-08-30T05:07:28;22.40;99.90
10175;DHT22;18221;38.704;0.152;2023-08-30T05:09:58;22.40;99.90
10175;DHT22;18221;38.704;0.152;2023-08-30T05:12:26;22.40;99.90
10175;DHT22;18221;38.704;0.152;2023-08-30T05:14:54;22.30;99.90
10175;DHT22;18221;38.704;0.152;2023-08-30T05:17:22;22.40;99.90
10175;DHT22;18221;38.704;0.152;2023-08-30T05:19:52;22.30;99.90
10175;DHT22;18221;38.704;0.152;2023-08-30T05:22:20;22.30;99.90
10175;DHT22;18221;38.704;0.152;2023-08-30T05:24:48;22.30;99.90
10175;DHT22;18221;38.704;0.152;2023-08-30T05:27:16;22.30;99.90
10175;DHT22;18221;38.704;0.152;2023-08-30T05:29:44;22.30;99.90
10175;DHT22;18221;38.704;0.152;2023-08-30T05:32:13;22.30;99.90
10175;DHT22;18221;38.704;0.152;2023-08-30T05:34:41;22.30;99.90
10175;DHT22;18221;38.704;0.152;2023-08-30T05:37:10;22.20;99.90
10175;DHT22;18221;38.704;0.152;2023-08-30T05:39:38;22.20;99.90
10175;DHT22;18221;38.704;0.152;2023-08-30T05:42:06;22.20;99.90
10175;DHT22;18221;38.704;0.152;2023-08-30T05:44:34;22.20;99.90
10175;DHT22;18221;38.704;0.152;2023-08-30T05:47:02;22.20;99.90
10175;DHT22;18221;38.704;0.152;2023-08-30T05:49:31;22.20;99.90
10175;DHT22;18221;38.704;0.152;2023-08-30T05:51:59;22.20;99.90
10175;DHT22;18221;38.704;0.152;2023-08-30T05:54:28;22.20;99.90
10175;DHT22;18221;38.704;0.152;2023-08-30T05:56:57;22.10;99.90
10175;DHT22;18221;38.704;0.152;2023-08-30T05:59:25;22.10;99.90
10175;DHT22;18221;38.704;0.152;2023-08-30T06:01:53;22.20;99.90
10175;DHT22;18221;38.704;0.152;2023-08-30T06:04:21;22.10;99.90
10175;DHT22;18221;38.704;0.152;2023-08-30T06:06:49;22.10;99.90
10175;DHT22;18221;38.704;0.152;2023-08-30T06:09:17;22.20;99.90
10175;DHT22;18221;38.704;0.152;2023-08-30T06:11:46;22.10;99.90
10175;DHT22;18221;38.704;0.152;2023-08-30T06:14:16;22.10;99.90
10175;DHT22;18221;38.704;0.152;2023-08-30T06:16:44;22.20;99.90
10175;DHT22;18221;38.704;0.152;2023-08-30T06:19:12;22.20;99.90
10175;DHT22;18221;38.704;0.152;2023-08-30T06:21:40;22.20;99.90
10175;DHT22;18221;38.704;0.152;2023-08-30T06:24:08;22.20;99.90
10175;DHT22;18221;38.704;0.152;2023-08-30T06:26:36;22.10;99.90
10175;DHT22;18221;38.704;0.152;2023-08-30T06:29:06;22.10;99.90
10175;DHT22;18221;38.704;0.152;2023-08-30T06:31:34;22.10;99.90
10175;DHT22;18221;38.704;0.152;2023-08-30T06:34:03;22.20;99.90
10175;DHT22;18221;38.704;0.152;2023-08-30T06:36:30;22.20;99.90
10175;DHT22;18221;38.704;0.152;2023-08-30T06:38:58;22.20;99.90
10175;DHT22;18221;38.704;0.152;2023-08-30T06:41:26;22.20;99.90
10175;DHT22;18221;38.704;0.152;2023-08-30T06:43:54;22.20;99.90
10175;DHT22;18221;38.704;0.152;2023-08-30T06:46:24;22.30;99.90
10175;DHT22;18221;38.704;0.152;2023-08-30T06:48:52;22.20;99.90
10175;DHT22;18221;38.704;0.152;2023-08-30T06:51:20;22.30;99.90
10175;DHT22;18221;38.704;0.152;2023-08-30T06:53:48;22.30;99.90
10175;DHT22;18221;38.704;0.152;2023-08-30T06:56:16;22.30;99.90
10175;DHT22;18221;38.704;0.152;2023-08-30T06:58:43;22.30;99.90
10175;DHT22;18221;38.704;0.152;2023-08-30T07:01:11;22.40;99.90
10175;DHT22;18221;38.704;0.152;2023-08-30T07:03:41;22.40;99.90
10175;DHT22;18221;38.704;0.152;2023-08-30T07:06:09;22.40;99.90
10175;DHT22;18221;38.704;0.152;2023-08-30T07:08:37;22.40;99.90
10175;DHT22;18221;38.704;0.152;2023-08-30T07:11:05;22.40;99.90
10175;DHT22;18221;38.704;0.152;2023-08-30T07:13:33;22.40;99.90
10175;DHT22;18221;38.704;0.152;2023-08-30T07:16:01;22.40;99.90
10175;DHT22;18221;38.704;0.152;2023-08-30T07:18:29;22.50;99.90
10175;DHT22;18221;38.704;0.152;2023-08-30T07:20:58;22.50;99.90
10175;DHT22;18221;38.704;0.152;2023-08-30T07:23:26;22.50;99.90
10175;DHT22;18221;38.704;0.152;2023-08-30T07:25:54;22.50;99.90
10175;DHT22;18221;38.704;0.152;2023-08-30T07:28:22;22.60;99.90
10175;DHT22;18221;38.704;0.152;2023-08-30T07:30:50;22.60;99.90
10175;DHT22;18221;38.704;0.152;2023-08-30T07:33:18;22.60;99.90
10175;DHT22;18221;38.704;0.152;2023-08-30T07:35:46;22.60;99.90
10175;DHT22;18221;38.704;0.152;2023-08-30T07:38:15;22.60;99.90
10175;DHT22;18221;38.704;0.152;2023-08-30T07:40:43;22.60;99.90
10175;DHT22;18221;38.704;0.152;2023-08-30T07:43:11;22.70;99.90
10175;DHT22;18221;38.704;0.152;2023-08-30T07:45:39;22.90;99.90
10175;DHT22;18221;38.704;0.152;2023-08-30T07:48:07;23.10;99.90
10175;DHT22;18221;38.704;0.152;2023-08-30T07:50:35;23.20;99.90
10175;DHT22;18221;38.704;0.152;2023-08-30T07:53:03;23.30;99.90
10175;DHT22;18221;38.704;0.152;2023-08-30T07:55:32;23.40;99.90
10175;DHT22;18221;38.704;0.152;2023-08-30T07:58:01;23.40;99.90
10175;DHT22;18221;38.704;0.152;2023-08-30T08:00:30;23.40;99.90
10175;DHT22;18221;38.704;0.152;2023-08-30T08:02:58;23.40;99.90
10175;DHT22;18221;38.704;0.152;2023-08-30T08:05:26;23.30;99.90
10175;DHT22;18221;38.704;0.152;2023-08-30T08:07:54;23.30;99.90
10175;DHT22;18221;38.704;0.152;2023-08-30T08:10:26;23.30;99.90
10175;DHT22;18221;38.704;0.152;2023-08-30T08:12:55;23.40;99.90
10175;DHT22;18221;38.704;0.152;2023-08-30T08:15:23;23.40;99.90
10175;DHT22;18221;38.704;0.152;2023-08-30T08:17:51;23.30;99.90
10175;DHT22;18221;38.704;0.152;2023-08-30T08:20:19;23.30;99.90
10175;DHT22;18221;38.704;0.152;2023-08-30T08:22:47;23.30;99.90
10175;DHT22;18221;38.704;0.152;2023-08-30T08:25:16;23.40;99.90
10175;DHT22;18221;38.704;0.152;2023-08-30T08:27:44;23.50;99.90
10175;DHT22;18221;38.704;0.152;2023-08-30T08:30:14;23.70;99.90
10175;DHT22;18221;38.704;0.152;2023-08-30T08:32:41;23.70;99.90
10175;DHT22;18221;38.704;0.152;2023-08-30T08:35:09;23.70;99.90
10175;DHT22;18221;38.704;0.152;2023-08-30T08:37:37;23.70;99.90
10175;DHT22;18221;38.704;0.152;2023-08-30T08:40:06;23.70;99.90
10175;DHT22;18221;38.704;0.152;2023-08-30T08:42:36;23.70;99.90
10175;DHT22;18221;38.704;0.152;2023-08-30T08:45:05;23.80;99.90
10175;DHT22;18221;38.704;0.152;2023-08-30T08:47:36;23.80;99.90
10175;DHT22;18221;38.704;0.152;2023-08-30T08:50:05;23.90;99.90
10175;DHT22;18221;38.704;0.152;2023-08-30T08:52:33;23.70;99.90
10175;DHT22;18221;38.704;0.152;2023-08-30T08:55:01;23.70;99.90
10175;DHT22;18221;38.704;0.152;2023-08-30T08:57:30;23.70;99.90
10175;DHT22;18221;38.704;0.152;2023-08-30T08:59:58;23.70;99.90
10175;DHT22;18221;38.704;0.152;2023-08-30T09:02:26;23.80;99.90
10175;DHT22;18221;38.704;0.152;2023-08-30T09:04:57;23.90;99.90
10175;DHT22;18221;38.704;0.152;2023-08-30T09:07:29;24.10;99.90
10175;DHT22;18221;38.704;0.152;2023-08-30T09:09:58;24.20;99.90
10175;DHT22;18221;38.704;0.152;2023-08-30T09:12:26;24.30;99.90
10175;DHT22;18221;38.704;0.152;2023-08-30T09:14:59;24.30;99.90
10175;DHT22;18221;38.704;0.152;2023-08-30T09:17:36;24.30;99.90
10175;DHT22;18221;38.704;0.152;2023-08-30T09:20:11;24.30;99.90
10175;DHT22;18221;38.704;0.152;2023-08-30T09:22:40;24.40;99.90
10175;DHT22;18221;38.704;0.152;2023-08-30T09:25:10;24.50;99.90
10175;DHT22;18221;38.704;0.152;2023-08-30T09:27:39;24.50;99.90
10175;DHT22;18221;38.704;0.152;2023-08-30T09:30:08;24.60;99.90
10175;DHT22;18221;38.704;0.152;2023-08-30T09:32:40;24.70;99.90
10175;DHT22;18221;38.704;0.152;2023-08-30T09:35:10;24.70;99.90
10175;DHT22;18221;38.704;0.152;2023-08-30T09:37:39;24.80;99.90
10175;DHT22;18221;38.704;0.152;2023-08-30T09:40:07;24.90;99.90
10175;DHT22;18221;38.704;0.152;2023-08-30T09:42:40;24.90;99.90
10175;DHT22;18221;38.704;0.152;2023-08-30T09:45:18;25.00;99.90
10175;DHT22;18221;38.704;0.152;2023-08-30T09:47:47;25.00;99.90
10175;DHT22;18221;38.704;0.152;2023-08-30T09:50:18;25.10;99.90
10175;DHT22;18221;38.704;0.152;2023-08-30T09:52:47;25.10;99.90
10175;DHT22;18221;38.704;0.152;2023-08-30T09:55:18;25.10;99.90
10175;DHT22;18221;38.704;0.152;2023-08-30T09:57:49;25.20;99.90
10175;DHT22;18221;38.704;0.152;2023-08-30T10:00:19;25.10;99.90
10175;DHT22;18221;38.704;0.152;2023-08-30T10:02:48;25.20;99.90
10175;DHT22;18221;38.704;0.152;2023-08-30T10:05:19;25.30;99.90
10175;DHT22;18221;38.704;0.152;2023-08-30T10:07:48;25.30;99.90
10175;DHT22;18221;38.704;0.152;2023-08-30T10:10:18;25.30;99.90
10175;DHT22;18221;38.704;0.152;2023-08-30T10:12:47;25.30;99.90
10175;DHT22;18221;38.704;0.152;2023-08-30T10:15:16;25.40;99.90
10175;DHT22;18221;38.704;0.152;2023-08-30T10:17:47;25.40;99.90
10175;DHT22;18221;38.704;0.152;2023-08-30T10:20:22;25.40;99.90
10175;DHT22;18221;38.704;0.152;2023-08-30T10:22:53;25.40;99.90
10175;DHT22;18221;38.704;0.152;2023-08-30T10:25:24;25.50;99.90
10175;DHT22;18221;38.704;0.152;2023-08-30T10:27:55;25.60;99.90
10175;DHT22;18221;38.704;0.152;2023-08-30T10:30:25;25.70;99.90
10175;DHT22;18221;38.704;0.152;2023-08-30T10:32:54;25.80;99.90
10175;DHT22;18221;38.704;0.152;2023-08-30T10:35:25;25.70;99.90
10175;DHT22;18221;38.704;0.152;2023-08-30T10:37:56;25.60;99.90
10175;DHT22;18221;38.704;0.152;2023-08-30T10:40:26;25.60;99.90
10175;DHT22;18221;38.704;0.152;2023-08-30T10:43:01;25.80;99.90
10175;DHT22;18221;38.704;0.152;2023-08-30T10:45:30;25.70;99.90
10175;DHT22;18221;38.704;0.152;2023-08-30T10:47:59;25.80;99.90
10175;DHT22;18221;38.704;0.152;2023-08-30T10:50:33;25.90;99.90
10175;DHT22;18221;38.704;0.152;2023-08-30T10:53:01;25.90;99.90
10175;DHT22;18221;38.704;0.152;2023-08-30T10:55:31;26.00;99.90
10175;DHT22;18221;38.704;0.152;2023-08-30T10:58:00;26.10;99.90
10175;DHT22;18221;38.704;0.152;2023-08-30T11:00:30;25.90;99.90
10175;DHT22;18221;38.704;0.152;2023-08-30T11:02:59;26.00;99.90
10175;DHT22;18221;38.704;0.152;2023-08-30T11:05:28;26.00;99.90
10175;DHT22;18221;38.704;0.152;2023-08-30T11:07:59;26.10;99.90
10175;DHT22;18221;38.704;0.152;2023-08-30T11:10:30;26.00;99.90
10175;DHT22;18221;38.704;0.152;2023-08-30T11:12:57;26.00;99.90
10175;DHT22;18221;38.704;0.152;2023-08-30T11:15:26;26.00;99.90
10175;DHT22;18221;38.704;0.152;2023-08-30T11:18:02;26.00;99.90
10175;DHT22;18221;38.704;0.152;2023-08-30T11:20:32;26.00;99.90
10175;DHT22;18221;38.704;0.152;2023-08-30T11:23:02;26.10;99.90
10175;DHT22;18221;38.704;0.152;2023-08-30T11:25:31;26.30;99.90
10175;DHT22;18221;38.704;0.152;2023-08-30T11:28:02;26.40;99.90
10175;DHT22;18221;38.704;0.152;2023-08-30T11:30:31;26.50;99.90
10175;DHT22;18221;38.704;0.152;2023-08-30T11:32:59;26.70;99.90
10175;DHT22;18221;38.704;0.152;2023-08-30T11:35:27;26.80;99.90
10175;DHT22;18221;38.704;0.152;2023-08-30T11:37:57;26.90;99.90
10175;DHT22;18221;38.704;0.152;2023-08-30T11:40:28;26.80;99.90
10175;DHT22;18221;38.704;0.152;2023-08-30T11:42:57;26.80;99.90
10175;DHT22;18221;38.704;0.152;2023-08-30T11:45:25;26.70;99.90
10175;DHT22;18221;38.704;0.152;2023-08-30T11:47:53;26.70;99.90
10175;DHT22;18221;38.704;0.152;2023-08-30T11:50:21;26.80;99.90
10175;DHT22;18221;38.704;0.152;2023-08-30T11:52:49;26.70;99.90
10175;DHT22;18221;38.704;0.152;2023-08-30T11:55:20;26.60;99.90
10175;DHT22;18221;38.704;0.152;2023-08-30T11:57:49;26.70;99.90
10175;DHT22;18221;38.704;0.152;2023-08-30T12:00:19;26.60;99.90
10175;DHT22;18221;38.704;0.152;2023-08-30T12:02:48;26.70;99.90
10175;DHT22;18221;38.704;0.152;2023-08-30T12:05:17;26.80;99.90
10175;DHT22;18221;38.704;0.152;2023-08-30T12:07:46;27.00;99.90
10175;DHT22;18221;38.704;0.152;2023-08-30T12:10:19;27.00;99.90
10175;DHT22;18221;38.704;0.152;2023-08-30T12:12:47;27.20;99.90
10175;DHT22;18221;38.704;0.152;2023-08-30T12:15:15;27.20;99.90
10175;DHT22;18221;38.704;0.152;2023-08-30T12:17:44;27.10;99.90
10175;DHT22;18221;38.704;0.152;2023-08-30T12:20:15;27.20;99.90
10175;DHT22;18221;38.704;0.152;2023-08-30T12:22:46;27.40;99.90
10175;DHT22;18221;38.704;0.152;2023-08-30T12:25:21;27.40;99.90
10175;DHT22;18221;38.704;0.152;2023-08-30T12:27:50;27.50;99.90
10175;DHT22;18221;38.704;0.152;2023-08-30T12:30:19;27.40;99.90
10175;DHT22;18221;38.704;0.152;2023-08-30T12:32:48;27.40;99.90
10175;DHT22;18221;38.704;0.152;2023-08-30T12:35:16;27.30;99.90
10175;DHT22;18221;38.704;0.152;2023-08-30T12:37:44;27.30;99.90
10175;DHT22;18221;38.704;0.152;2023-08-30T12:40:12;27.30;99.90
10175;DHT22;18221;38.704;0.152;2023-08-30T12:42:44;27.30;99.90
10175;DHT22;18221;38.704;0.152;2023-08-30T12:45:12;27.40;99.90
10175;DHT22;18221;38.704;0.152;2023-08-30T12:47:40;27.50;99.90
10175;DHT22;18221;38.704;0.152;2023-08-30T12:50:08;27.70;99.90
10175;DHT22;18221;38.704;0.152;2023-08-30T12:52:36;27.70;99.90
10175;DHT22;18221;38.704;0.152;2023-08-30T12:55:05;27.70;99.90
10175;DHT22;18221;38.704;0.152;2023-08-30T12:57:33;27.80;99.90
10175;DHT22;18221;38.704;0.152;2023-08-30T13:00:03;27.80;99.90
10175;DHT22;18221;38.704;0.152;2023-08-30T13:02:31;27.90;99.90
10175;DHT22;18221;38.704;0.152;2023-08-30T13:04:59;27.70;99.90
10175;DHT22;18221;38.704;0.152;2023-08-30T13:07:27;27.60;99.90
10175;DHT22;18221;38.704;0.152;2023-08-30T13:09:55;27.40;99.90
10175;DHT22;18221;38.704;0.152;2023-08-30T13:12:23;27.40;99.90
10175;DHT22;18221;38.704;0.152;2023-08-30T13:14:52;27.20;99.90
10175;DHT22;18221;38.704;0.152;2023-08-30T13:17:21;27.10;99.90
10175;DHT22;18221;38.704;0.152;2023-08-30T13:19:49;27.00;99.90
10175;DHT22;18221;38.704;0.152;2023-08-30T13:22:17;26.90;99.90
10175;DHT22;18221;38.704;0.152;2023-08-30T13:24:45;26.80;99.90
10175;DHT22;18221;38.704;0.152;2023-08-30T13:27:14;27.00;99.90
10175;DHT22;18221;38.704;0.152;2023-08-30T13:29:42;26.90;99.90
10175;DHT22;18221;38.704;0.152;2023-08-30T13:32:10;26.80;99.90
10175;DHT22;18221;38.704;0.152;2023-08-30T13:34:40;26.70;99.90
10175;DHT22;18221;38.704;0.152;2023-08-30T13:37:11;26.60;99.90
10175;DHT22;18221;38.704;0.152;2023-08-30T13:39:40;26.50;99.90
10175;DHT22;18221;38.704;0.152;2023-08-30T13:42:08;26.50;99.90
10175;DHT22;18221;38.704;0.152;2023-08-30T13:44:36;26.40;99.90
10175;DHT22;18221;38.704;0.152;2023-08-30T13:47:04;26.40;99.90
10175;DHT22;18221;38.704;0.152;2023-08-30T13:49:32;26.40;99.90
10175;DHT22;18221;38.704;0.152;2023-08-30T13:52:05;26.30;99.90
10175;DHT22;18221;38.704;0.152;2023-08-30T13:54:33;26.30;99.90
10175;DHT22;18221;38.704;0.152;2023-08-30T13:57:01;26.30;99.90
10175;DHT22;18221;38.704;0.152;2023-08-30T13:59:30;26.30;99.90
10175;DHT22;18221;38.704;0.152;2023-08-30T14:01:58;26.20;99.90
10175;DHT22;18221;38.704;0.152;2023-08-30T14:04:26;26.20;99.90
10175;DHT22;18221;38.704;0.152;2023-08-30T14:06:55;26.30;99.90
10175;DHT22;18221;38.704;0.152;2023-08-30T14:09:25;26.40;99.90
10175;DHT22;18221;38.704;0.152;2023-08-30T14:11:53;26.40;99.90
10175;DHT22;18221;38.704;0.152;2023-08-30T14:14:21;26.50;99.90
10175;DHT22;18221;38.704;0.152;2023-08-30T14:16:49;26.70;99.90
10175;DHT22;18221;38.704;0.152;2023-08-30T14:19:17;26.80;99.90
10175;DHT22;18221;38.704;0.152;2023-08-30T14:21:45;26.60;99.90
10175;DHT22;18221;38.704;0.152;2023-08-30T14:24:13;26.50;99.90
10175;DHT22;18221;38.704;0.152;2023-08-30T14:26:43;26.50;99.90
10175;DHT22;18221;38.704;0.152;2023-08-30T14:29:10;26.70;99.90
10175;DHT22;18221;38.704;0.152;2023-08-30T14:31:38;26.80;99.90
10175;DHT22;18221;38.704;0.152;2023-08-30T14:34:10;26.80;99.90
10175;DHT22;18221;38.704;0.152;2023-08-30T14:36:38;26.90;99.90
10175;DHT22;18221;38.704;0.152;2023-08-30T14:39:08;27.30;99.90
10175;DHT22;18221;38.704;0.152;2023-08-30T14:41:36;27.10;99.90
10175;DHT22;18221;38.704;0.152;2023-08-30T14:44:07;27.20;99.90
10175;DHT22;18221;38.704;0.152;2023-08-30T14:46:35;27.20;99.90
10175;DHT22;18221;38.704;0.152;2023-08-30T14:49:03;27.30;99.90
10175;DHT22;18221;38.704;0.152;2023-08-30T14:51:31;27.10;99.90
10175;DHT22;18221;38.704;0.152;2023-08-30T14:53:59;27.10;99.90
10175;DHT22;18221;38.704;0.152;2023-08-30T14:56:27;27.20;99.90
10175;DHT22;18221;38.704;0.152;2023-08-30T14:58:55;27.10;99.90
10175;DHT22;18221;38.704;0.152;2023-08-30T15:01:24;26.90;99.90
10175;DHT22;18221;38.704;0.152;2023-08-30T15:03:52;26.90;99.90
10175;DHT22;18221;38.704;0.152;2023-08-30T15:06:20;26.80;99.90
10175;DHT22;18221;38.704;0.152;2023-08-30T15:08:49;26.90;99.90
10175;DHT22;18221;38.704;0.152;2023-08-30T15:11:17;26.90;99.90
10175;DHT22;18221;38.704;0.152;2023-08-30T15:13:45;26.90;99.90
10175;DHT22;18221;38.704;0.152;2023-08-30T15:16:13;26.80;99.90
10175;DHT22;18221;38.704;0.152;2023-08-30T15:18:43;26.70;99.90
10175;DHT22;18221;38.704;0.152;2023-08-30T15:21:10;26.60;99.90
10175;DHT22;18221;38.704;0.152;2023-08-30T15:23:38;26.50;99.90
10175;DHT22;18221;38.704;0.152;2023-08-30T15:26:06;26.50;99.90
10175;DHT22;18221;38.704;0.152;2023-08-30T15:28:36;26.50;99.90
10175;DHT22;18221;38.704;0.152;2023-08-30T15:31:05;26.40;99.90
10175;DHT22;18221;38.704;0.152;2023-08-30T15:33:33;26.30;99.90
10175;DHT22;18221;38.704;0.152;2023-08-30T15:36:03;26.20;99.90
10175;DHT22;18221;38.704;0.152;2023-08-30T15:38:32;26.20;99.90
10175;DHT22;18221;38.704;0.152;2023-08-30T15:41:06;26.10;99.90
10175;DHT22;18221;38.704;0.152;2023-08-30T15:43:37;26.00;99.90
10175;DHT22;18221;38.704;0.152;2023-08-30T15:46:06;25.80;99.90
10175;DHT22;18221;38.704;0.152;2023-08-30T15:48:35;25.70;99.90
10175;DHT22;18221;38.704;0.152;2023-08-30T15:51:07;25.70;99.90